Time;durP1;ratioP1;P1;durP2;ratioP2;P2;SDS_P1;SDS_P2;PMS_P1;PMS_P2;Temp;Humidity;BMP_temperature;BMP_pressure;BME280_temperature;BME280_humidity;BME280_pressure;Samples;Min_cycle;Max_cycle;Signal;HPM_P1;HPM_P2
2022/12/29 00:00:49;;;;;;;8.93;1.20;;;25.50;61.90;;;;;;4039731;29;20049;-59
2022/12/29 00:03:11;;;;;;;2.95;1.25;;;25.50;62.00;;;;;;4036662;29;20037;-55
2022/12/29 00:05:33;;;;;;;3.50;1.23;;;25.50;62.10;;;;;;4039240;29;20036;-48
2022/12/29 00:07:56;;;;;;;3.15;1.27;;;25.50;62.00;;;;;;4037848;29;20045;-54
2022/12/29 00:10:18;;;;;;;5.25;1.63;;;25.40;61.90;;;;;;4036552;29;20076;-51
2022/12/29 00:15:39;;;;;;;8.82;1.30;;;25.30;61.50;;;;;;4037980;29;20573;-58
2022/12/29 00:18:02;;;;;;;5.40;1.40;;;25.30;61.50;;;;;;4039723;29;20097;-57
2022/12/29 00:36:41;;;;;;;4.00;1.40;;;25.30;61.60;;;;;;4038566;29;20095;-59
2022/12/29 00:44:30;;;;;;;6.47;1.50;;;25.50;61.20;;;;;;4045289;29;20040;-62
2022/12/29 00:46:53;;;;;;;4.28;1.20;;;25.50;61.20;;;;;;4037805;29;20509;-61
2022/12/29 00:49:31;;;;;;;5.28;1.60;;;25.50;61.10;;;;;;4044421;29;20617;-61
2022/12/29 00:51:54;;;;;;;6.18;1.70;;;25.50;61.20;;;;;;4043581;29;20071;-60
2022/12/29 00:54:18;;;;;;;4.22;1.45;;;25.50;61.00;;;;;;4041517;29;20056;-58
2022/12/29 00:56:40;;;;;;;4.15;1.30;;;25.60;61.10;;;;;;4041343;29;20852;-59
2022/12/29 00:59:09;;;;;;;3.75;1.30;;;25.60;61.10;;;;;;4037635;29;20449;-61
2022/12/29 01:01:32;;;;;;;3.33;1.50;;;25.50;60.90;;;;;;4041609;29;20040;-58
2022/12/29 01:03:55;;;;;;;5.88;1.60;;;25.60;61.10;;;;;;4040569;29;20032;-61
2022/12/29 01:06:17;;;;;;;5.05;1.67;;;25.50;60.80;;;;;;4039163;29;20049;-60
2022/12/29 01:08:40;;;;;;;5.13;1.92;;;25.50;60.80;;;;;;4046466;29;20119;-61
2022/12/29 01:11:04;;;;;;;5.55;1.90;;;25.50;60.60;;;;;;4041329;29;20071;-62
2022/12/29 01:13:25;;;;;;;;;;;25.50;60.50;;;;;;4043548;29;20103;-61
2022/12/29 01:15:52;;;;;;;5.80;1.92;;;25.40;60.60;;;;;;4039253;29;20403;-59
2022/12/29 01:18:14;;;;;;;5.10;1.95;;;25.50;60.70;;;;;;4038135;29;20406;-61
2022/12/29 01:20:37;;;;;;;5.20;2.03;;;25.40;60.70;;;;;;4043775;29;20037;-60
2022/12/29 01:22:59;;;;;;;4.78;2.08;;;25.50;60.70;;;;;;4045829;29;20044;-60
2022/12/29 01:25:22;;;;;;;5.57;2.08;;;25.50;60.60;;;;;;4043510;29;20044;-60
2022/12/29 01:27:44;;;;;;;4.75;1.90;;;25.50;60.50;;;;;;4045138;29;20048;-61
2022/12/29 01:30:07;;;;;;;5.85;2.00;;;25.50;60.40;;;;;;4042073;29;20056;-61
2022/12/29 01:32:29;;;;;;;6.50;1.80;;;25.50;60.40;;;;;;4020813;29;20084;-61
2022/12/29 01:34:52;;;;;;;5.05;1.70;;;25.50;60.40;;;;;;4010393;29;20128;-62
2022/12/29 01:37:14;;;;;;;7.20;2.30;;;25.50;60.40;;;;;;4007924;29;20434;-62
2022/12/29 01:39:37;;;;;;;4.80;1.70;;;25.50;60.30;;;;;;4008787;29;20040;-61
2022/12/29 01:41:59;;;;;;;5.05;1.85;;;25.40;60.40;;;;;;4008367;29;20363;-62
2022/12/29 01:44:52;;;;;;;4.53;1.90;;;25.40;60.60;;;;;;4003229;29;20052;-62
2022/12/29 01:47:23;;;;;;;5.53;1.90;;;25.40;60.60;;;;;;4008090;29;20048;-63
2022/12/29 01:49:46;;;;;;;7.38;2.10;;;25.40;60.60;;;;;;4009072;29;20041;-64
2022/12/29 01:52:08;;;;;;;5.90;2.60;;;25.40;60.60;;;;;;4009038;29;20080;-63
2022/12/29 01:54:39;;;;;;;5.68;1.98;;;25.40;60.60;;;;;;4008786;29;20038;-59
2022/12/29 01:57:07;;;;;;;5.93;2.10;;;25.50;60.90;;;;;;4009542;29;20079;-63
2022/12/29 01:59:37;;;;;;;4.95;1.77;;;25.50;60.90;;;;;;4012504;29;20033;-62
2022/12/29 02:02:00;;;;;;;4.57;2.28;;;25.50;60.90;;;;;;4003283;29;20191;-61
2022/12/29 02:04:24;;;;;;;4.95;2.05;;;25.50;61.00;;;;;;4008871;29;20042;-63
2022/12/29 02:06:54;;;;;;;5.30;1.95;;;25.50;61.00;;;;;;4007615;29;20418;-61
2022/12/29 02:09:17;;;;;;;5.65;2.20;;;25.50;61.10;;;;;;4007497;29;20057;-62
2022/12/29 02:11:40;;;;;;;4.35;2.10;;;25.50;61.10;;;;;;4005947;29;20589;-62
2022/12/29 02:14:05;;;;;;;8.32;2.20;;;25.50;61.10;;;;;;4010994;29;20045;-60
2022/12/29 02:16:54;;;;;;;4.68;2.20;;;25.50;61.10;;;;;;4004736;29;20062;-62
2022/12/29 02:19:34;;;;;;;5.15;2.08;;;25.50;61.10;;;;;;4008123;29;20049;-63
2022/12/29 02:22:06;;;;;;;5.55;2.20;;;25.50;61.40;;;;;;4007850;29;20097;-61
2022/12/29 02:24:56;;;;;;;6.00;1.90;;;25.50;61.40;;;;;;4003760;29;20056;-61
2022/12/29 02:27:37;;;;;;;4.75;2.10;;;25.50;61.30;;;;;;4010793;29;20485;-61
2022/12/29 02:30:36;;;;;;;6.82;2.47;;;25.50;61.20;;;;;;4010717;29;20036;-63
2022/12/29 02:33:35;;;;;;;4.70;2.25;;;25.50;61.40;;;;;;4024084;29;20126;-61
2022/12/29 02:36:30;;;;;;;4.35;2.08;;;25.50;61.20;;;;;;4033565;29;20084;-61
2022/12/29 02:39:10;;;;;;;4.60;2.25;;;25.50;61.20;;;;;;4036424;29;20462;-63
2022/12/29 02:42:09;;;;;;;5.88;2.08;;;25.50;61.30;;;;;;4039483;29;20044;-61
2022/12/29 02:45:06;;;;;;;5.63;2.05;;;25.60;61.50;;;;;;4036056;29;20033;-61
2022/12/29 02:48:03;;;;;;;6.68;2.28;;;25.50;61.50;;;;;;4019381;29;20437;-60
2022/12/29 02:50:36;;;;;;;5.93;2.33;;;25.60;61.60;;;;;;4038045;29;20152;-62
2022/12/29 02:53:03;;;;;;;4.00;2.10;;;25.50;61.60;;;;;;4039110;29;20047;-62
2022/12/29 02:55:26;;;;;;;4.78;2.38;;;25.60;61.60;;;;;;4037155;29;20123;-62
2022/12/29 02:57:48;;;;;;;5.15;2.20;;;25.60;61.60;;;;;;4040069;29;20044;-63
2022/12/29 03:00:14;;;;;;;4.28;2.30;;;25.60;62.20;;;;;;4041236;29;20036;-63
2022/12/29 03:02:50;;;;;;;7.03;2.30;;;25.60;61.60;;;;;;4038812;29;20071;-63
2022/12/29 03:05:21;;;;;;;4.07;2.40;;;25.60;61.60;;;;;;4034370;29;20066;-62
2022/12/29 03:08:13;;;;;;;7.50;2.20;;;25.60;61.70;;;;;;4033686;29;20262;-61
2022/12/29 03:10:57;;;;;;;7.25;2.42;;;25.70;61.70;;;;;;4025746;29;20033;-61
2022/12/29 03:16:24;;;;;;;4.93;2.15;;;25.70;61.70;;;;;;4039910;29;20076;-63
2022/12/29 03:19:05;;;;;;;5.68;2.15;;;25.70;61.60;;;;;;4042393;29;20048;-64
2022/12/29 03:24:22;;;;;;;7.55;3.03;;;25.70;61.70;;;;;;4039316;29;20457;-64
2022/12/29 03:26:47;;;;;;;3.83;1.80;;;25.70;61.40;;;;;;4042970;29;20469;-62
2022/12/29 03:29:10;;;;;;;4.75;2.00;;;25.70;61.40;;;;;;4040020;29;20052;-64
2022/12/29 03:31:33;;;;;;;4.10;2.00;;;25.70;61.50;;;;;;4038968;29;21401;-60
2022/12/29 03:33:56;;;;;;;6.70;2.17;;;25.70;61.40;;;;;;4037925;29;20041;-61
2022/12/29 03:36:27;;;;;;;;;;;25.70;61.50;;;;;;4040470;29;20139;-61
2022/12/29 03:39:06;;;;;;;4.30;2.20;;;25.70;61.40;;;;;;4039942;29;20296;-62
2022/12/29 03:41:32;;;;;;;2.92;1.70;;;25.70;62.30;;;;;;4036682;29;20075;-62
2022/12/29 03:43:54;;;;;;;4.05;2.20;;;25.70;61.70;;;;;;4038078;29;20123;-61
2022/12/29 03:46:17;;;;;;;4.28;2.40;;;25.70;61.50;;;;;;4025564;29;20053;-63
2022/12/29 03:48:39;;;;;;;6.85;2.38;;;25.70;61.70;;;;;;4036575;29;20043;-61
2022/12/29 03:51:02;;;;;;;7.07;2.75;;;25.70;61.80;;;;;;4037160;29;20529;-62
2022/12/29 03:53:24;;;;;;;4.95;2.35;;;25.70;61.70;;;;;;4036787;29;20048;-65
2022/12/29 03:55:47;;;;;;;6.43;2.60;;;25.70;61.70;;;;;;4033686;29;20136;-63
2022/12/29 03:58:09;;;;;;;7.28;2.75;;;25.70;61.60;;;;;;4033977;29;20779;-64
2022/12/29 04:00:31;;;;;;;7.18;2.15;;;25.70;61.70;;;;;;4034899;29;20397;-63
2022/12/29 04:02:54;;;;;;;4.80;2.30;;;25.80;61.60;;;;;;4036277;29;20040;-61
2022/12/29 04:05:17;;;;;;;4.38;2.50;;;25.80;61.80;;;;;;4033426;29;20071;-60
2022/12/29 04:07:39;;;;;;;3.45;1.83;;;25.80;61.80;;;;;;4033284;29;20398;-61
2022/12/29 04:10:01;;;;;;;4.85;2.20;;;25.80;61.70;;;;;;4030407;29;20041;-62
2022/12/29 04:12:24;;;;;;;6.05;2.28;;;25.80;61.80;;;;;;4042444;29;20132;-62
2022/12/29 04:14:46;;;;;;;5.97;1.98;;;25.80;61.80;;;;;;4044805;29;20479;-60
2022/12/29 04:17:08;;;;;;;4.55;1.92;;;25.80;61.90;;;;;;4043321;29;20053;-60
2022/12/29 04:19:31;;;;;;;5.03;2.25;;;25.90;61.80;;;;;;4039001;29;20076;-60
2022/12/29 04:21:53;;;;;;;5.15;1.95;;;25.80;61.80;;;;;;4045939;29;20045;-60
2022/12/29 04:24:17;;;;;;;5.15;1.98;;;25.80;61.80;;;;;;4045205;29;20076;-61
2022/12/29 04:26:39;;;;;;;5.22;2.00;;;25.90;62.00;;;;;;4045014;29;20040;-61
2022/12/29 04:29:01;;;;;;;4.45;1.95;;;25.90;62.10;;;;;;4042919;29;20077;-61
2022/12/29 04:31:24;;;;;;;7.40;2.28;;;25.90;62.00;;;;;;4039987;29;20048;-59
2022/12/29 04:33:46;;;;;;;6.55;2.45;;;25.90;61.80;;;;;;4041921;29;20046;-59
2022/12/29 04:36:09;;;;;;;6.70;1.85;;;25.90;61.70;;;;;;4043457;29;20501;-58
2022/12/29 04:38:31;;;;;;;6.40;2.33;;;25.90;61.70;;;;;;4041380;29;20040;-62
2022/12/29 04:40:54;;;;;;;4.80;1.83;;;25.90;61.60;;;;;;4043533;29;20049;-59
2022/12/29 04:43:18;;;;;;;7.00;2.13;;;25.90;61.30;;;;;;4041424;29;20107;-59
2022/12/29 04:45:49;;;;;;;5.68;2.08;;;25.90;61.20;;;;;;4048792;29;20430;-61
2022/12/29 04:48:12;;;;;;;5.18;1.85;;;25.80;61.10;;;;;;4044459;29;20040;-60
2022/12/29 04:50:35;;;;;;;4.97;1.90;;;25.80;61.10;;;;;;4043719;29;20485;-61
2022/12/29 04:52:57;;;;;;;7.55;2.58;;;25.80;61.10;;;;;;4043917;29;20077;-61
2022/12/29 04:55:20;;;;;;;5.97;2.30;;;25.80;61.10;;;;;;4045169;29;20048;-61
2022/12/29 04:57:42;;;;;;;3.80;2.17;;;25.80;61.20;;;;;;4044701;29;20139;-62
2022/12/29 05:00:05;;;;;;;5.50;1.88;;;25.80;61.10;;;;;;4042081;29;20520;-59
2022/12/29 05:02:28;;;;;;;6.18;2.10;;;25.80;61.10;;;;;;4038838;29;20454;-61
2022/12/29 05:04:51;;;;;;;6.05;1.83;;;25.80;61.10;;;;;;4041021;29;20048;-63
2022/12/29 05:07:14;;;;;;;8.23;2.45;;;25.80;61.10;;;;;;4041380;29;20037;-60
2022/12/29 05:09:36;;;;;;;5.28;1.88;;;25.80;61.00;;;;;;4026098;29;20040;-59
2022/12/29 05:11:59;;;;;;;5.30;1.88;;;25.80;61.10;;;;;;4043059;29;20520;-60
2022/12/29 05:14:21;;;;;;;7.47;2.42;;;25.80;61.10;;;;;;4044034;29;20131;-61
2022/12/29 05:16:44;;;;;;;4.72;1.80;;;25.80;61.00;;;;;;4043267;29;20323;-59
2022/12/29 05:19:06;;;;;;;5.20;1.73;;;25.80;61.00;;;;;;4043220;29;20044;-60
2022/12/29 05:21:29;;;;;;;5.22;2.17;;;25.80;60.90;;;;;;4031923;29;20543;-61
2022/12/29 05:23:51;;;;;;;5.72;2.28;;;25.80;60.80;;;;;;4043610;29;20606;-60
2022/12/29 05:26:14;;;;;;;7.68;2.30;;;25.80;60.80;;;;;;4042900;29;20108;-61
2022/12/29 05:28:36;;;;;;;5.63;1.95;;;25.70;60.70;;;;;;4038861;29;20041;-60
2022/12/29 05:30:59;;;;;;;6.22;2.15;;;25.70;60.70;;;;;;4043616;29;20112;-60
2022/12/29 05:33:21;;;;;;;4.93;2.20;;;25.80;60.70;;;;;;4041237;29;20539;-61
2022/12/29 05:35:43;;;;;;;6.03;2.50;;;25.80;60.80;;;;;;4044269;29;20453;-60
2022/12/29 05:38:06;;;;;;;9.57;2.67;;;25.80;60.70;;;;;;4041625;29;20044;-60
2022/12/29 05:40:28;;;;;;;5.47;2.22;;;25.70;60.70;;;;;;4041003;29;20047;-61
2022/12/29 05:42:51;;;;;;;7.00;2.30;;;25.70;60.70;;;;;;4027286;29;20079;-60
2022/12/29 05:45:13;;;;;;;6.22;2.33;;;25.70;60.80;;;;;;4026279;29;20037;-62
2022/12/29 05:47:35;;;;;;;6.55;2.38;;;25.70;60.70;;;;;;4045098;29;20450;-61
2022/12/29 05:49:58;;;;;;;4.85;2.00;;;25.70;60.70;;;;;;4039213;29;20043;-62
2022/12/29 05:52:20;;;;;;;7.30;2.45;;;25.70;60.70;;;;;;4031039;29;20512;-60
2022/12/29 05:54:43;;;;;;;7.93;2.33;;;25.70;60.70;;;;;;4041100;29;20079;-61
2022/12/29 05:57:05;;;;;;;5.68;2.42;;;25.70;60.70;;;;;;4038701;29;20059;-61
2022/12/29 05:59:27;;;;;;;6.47;2.08;;;25.70;60.70;;;;;;4041275;29;20119;-60
2022/12/29 06:01:50;;;;;;;6.20;2.38;;;25.70;60.70;;;;;;4044100;29;20040;-62
2022/12/29 06:04:12;;;;;;;4.57;1.65;;;25.70;60.70;;;;;;4042673;29;20028;-61
2022/12/29 06:06:35;;;;;;;8.23;2.55;;;25.70;60.80;;;;;;4039967;29;20041;-60
2022/12/29 06:08:57;;;;;;;5.72;2.30;;;25.70;60.80;;;;;;4040486;29;20040;-60
2022/12/29 06:11:19;;;;;;;5.97;2.63;;;25.70;60.80;;;;;;4041933;29;20048;-60
2022/12/29 06:13:42;;;;;;;5.13;2.20;;;25.60;60.70;;;;;;4025115;29;20531;-60
2022/12/29 06:16:05;;;;;;;4.72;1.90;;;25.60;60.70;;;;;;4041287;29;20060;-59
2022/12/29 06:18:27;;;;;;;6.00;2.00;;;25.60;60.60;;;;;;4039549;29;20788;-60
2022/12/29 06:20:50;;;;;;;4.93;2.00;;;25.60;60.60;;;;;;4044623;29;20048;-60
2022/12/29 06:23:13;;;;;;;8.40;2.13;;;25.60;60.80;;;;;;4042981;29;20040;-60
2022/12/29 06:25:35;;;;;;;5.68;2.15;;;25.60;60.70;;;;;;4042684;29;20045;-61
2022/12/29 06:27:58;;;;;;;5.65;2.30;;;25.60;60.80;;;;;;4040877;29;20055;-59
2022/12/29 06:30:20;;;;;;;6.53;2.03;;;25.50;60.70;;;;;;4041252;29;20469;-61
2022/12/29 06:32:43;;;;;;;4.72;1.90;;;25.60;60.80;;;;;;4040912;29;20088;-60
2022/12/29 06:35:06;;;;;;;5.95;2.00;;;25.60;60.80;;;;;;4043402;29;20052;-60
2022/12/29 06:37:28;;;;;;;4.03;1.70;;;25.50;60.80;;;;;;4043577;29;20490;-60
2022/12/29 06:39:51;;;;;;;4.65;1.92;;;25.50;60.80;;;;;;4041024;29;20398;-60
2022/12/29 06:42:13;;;;;;;6.10;1.88;;;25.50;61.50;;;;;;4042595;29;20560;-60
2022/12/29 06:44:35;;;;;;;5.13;1.90;;;25.50;60.80;;;;;;4038965;29;20501;-61
2022/12/29 06:46:58;;;;;;;5.68;2.25;;;25.50;60.80;;;;;;4039490;29;20047;-60
2022/12/29 06:49:21;;;;;;;5.45;2.47;;;25.50;60.90;;;;;;4040677;29;20041;-60
2022/12/29 06:51:43;;;;;;;5.63;1.90;;;25.50;61.00;;;;;;4043269;29;20049;-60
2022/12/29 06:54:05;;;;;;;5.70;1.60;;;25.50;61.10;;;;;;4043064;29;20052;-60
2022/12/29 06:56:28;;;;;;;5.38;2.20;;;25.50;61.00;;;;;;4041279;29;20116;-61
2022/12/29 06:58:50;;;;;;;6.68;2.00;;;25.50;61.10;;;;;;4046409;29;20044;-61
2022/12/29 07:01:13;;;;;;;3.92;1.95;;;25.50;61.20;;;;;;4043922;29;20460;-60
2022/12/29 07:03:35;;;;;;;4.30;1.60;;;25.40;61.20;;;;;;4043127;29;20051;-59
2022/12/29 07:05:57;;;;;;;5.53;1.77;;;25.40;61.20;;;;;;4045114;29;20386;-61
2022/12/29 07:08:20;;;;;;;4.55;1.92;;;25.40;61.30;;;;;;4046013;29;20071;-63
2022/12/29 07:10:43;;;;;;;7.60;2.03;;;25.50;61.50;;;;;;4041635;29;20598;-61
2022/12/29 07:13:07;;;;;;;6.18;1.90;;;25.40;61.30;;;;;;4041776;29;20140;-62
2022/12/29 07:15:29;;;;;;;5.90;2.20;;;25.40;61.40;;;;;;4041991;29;20040;-62
2022/12/29 07:17:52;;;;;;;3.92;1.63;;;25.40;61.70;;;;;;4050199;29;20409;-61
2022/12/29 07:20:14;;;;;;;6.07;2.03;;;25.40;61.80;;;;;;4039491;29;20129;-62
2022/12/29 07:22:38;;;;;;;4.82;2.22;;;25.40;62.00;;;;;;4041780;29;20032;-60
2022/12/29 07:25:00;;;;;;;4.85;1.88;;;25.40;62.10;;;;;;4043859;29;20040;-61
2022/12/29 07:27:23;;;;;;;5.50;2.10;;;25.40;62.00;;;;;;4039413;29;20072;-60
2022/12/29 07:29:45;;;;;;;5.97;1.98;;;25.40;62.20;;;;;;4041581;29;20043;-61
2022/12/29 07:32:08;;;;;;;6.50;2.00;;;25.40;62.20;;;;;;4019433;29;20056;-61
2022/12/29 07:34:30;;;;;;;6.20;1.98;;;25.40;62.80;;;;;;4036072;29;20477;-60
2022/12/29 07:36:53;;;;;;;5.10;1.95;;;25.30;62.00;;;;;;4035397;29;20419;-61
2022/12/29 07:39:15;;;;;;;7.90;2.42;;;25.40;62.10;;;;;;4023476;29;20072;-60
2022/12/29 07:41:38;;;;;;;5.80;1.98;;;25.30;62.00;;;;;;4039738;29;20051;-60
2022/12/29 07:44:00;;;;;;;5.85;2.00;;;25.30;62.00;;;;;;4040345;29;20093;-62
2022/12/29 07:46:22;;;;;;;6.05;1.77;;;25.30;62.10;;;;;;4041930;29;20044;-61
2022/12/29 07:48:45;;;;;;;5.10;2.00;;;25.30;62.00;;;;;;4041305;29;20597;-62
2022/12/29 07:51:07;;;;;;;4.90;2.30;;;25.20;62.10;;;;;;4037127;29;20462;-61
2022/12/29 07:53:30;;;;;;;5.18;2.10;;;25.20;62.00;;;;;;4040228;29;20104;-60
2022/12/29 07:55:52;;;;;;;6.88;2.38;;;25.20;62.10;;;;;;4039540;29;20072;-61
2022/12/29 07:58:15;;;;;;;5.18;2.33;;;25.20;62.10;;;;;;4034417;29;20076;-61
2022/12/29 08:00:38;;;;;;;4.20;2.10;;;25.20;62.20;;;;;;4033003;29;20536;-62
2022/12/29 08:03:01;;;;;;;6.78;2.38;;;25.20;62.10;;;;;;4029868;29;20044;-61
2022/12/29 08:05:23;;;;;;;6.93;2.70;;;25.20;62.50;;;;;;4034350;29;20496;-62
2022/12/29 08:07:47;;;;;;;5.68;2.10;;;25.20;62.10;;;;;;4032406;29;20044;-63
2022/12/29 08:10:09;;;;;;;;;;;25.20;62.10;;;;;;4033144;29;20051;-62
2022/12/29 08:12:31;;;;;;;5.53;2.20;;;25.20;62.20;;;;;;4035205;29;19922;-59
2022/12/29 08:14:54;;;;;;;4.78;1.98;;;25.20;62.10;;;;;;4033722;29;20100;-61
2022/12/29 08:17:16;;;;;;;5.13;2.20;;;25.10;62.10;;;;;;4034381;29;20056;-60
2022/12/29 08:19:39;;;;;;;5.25;2.25;;;25.20;62.10;;;;;;4034141;29;20043;-61
2022/12/29 08:22:02;;;;;;;7.82;2.05;;;25.10;62.00;;;;;;4035997;29;20458;-61
2022/12/29 08:24:24;;;;;;;5.97;2.05;;;25.10;62.10;;;;;;4041604;29;20458;-60
2022/12/29 08:26:47;;;;;;;4.63;2.15;;;25.10;62.10;;;;;;4037490;29;20040;-62
2022/12/29 08:29:09;;;;;;;7.28;2.47;;;25.10;62.10;;;;;;4032224;29;20113;-60
2022/12/29 08:31:32;;;;;;;6.18;2.17;;;25.10;62.20;;;;;;4042674;29;20091;-60
2022/12/29 08:33:54;;;;;;;6.78;2.20;;;25.10;62.30;;;;;;4019206;29;20088;-60
2022/12/29 08:36:16;;;;;;;6.05;2.10;;;25.10;62.20;;;;;;4051458;23;20135;-50
2022/12/29 08:38:39;;;;;;;6.80;2.35;;;25.10;62.20;;;;;;4048156;29;20100;-51
2022/12/29 08:41:01;;;;;;;4.88;1.88;;;25.10;62.20;;;;;;4047193;29;20032;-47
2022/12/29 08:43:25;;;;;;;8.40;2.13;;;25.10;62.20;;;;;;4047682;29;20052;-47
2022/12/29 08:45:47;;;;;;;6.53;2.35;;;25.10;62.30;;;;;;4051134;29;20040;-50
2022/12/29 08:48:10;;;;;;;7.53;2.10;;;25.10;62.30;;;;;;4038119;29;20048;-52
2022/12/29 08:50:32;;;;;;;4.45;2.05;;;25.10;62.40;;;;;;4050378;29;20453;-49
2022/12/29 08:52:55;;;;;;;5.25;2.10;;;25.10;62.50;;;;;;4047721;29;20067;-48
2022/12/29 08:55:17;;;;;;;5.43;2.30;;;25.10;62.40;;;;;;4055637;29;20149;-50
2022/12/29 08:57:40;;;;;;;5.75;2.20;;;25.10;62.50;;;;;;4052762;29;20479;-49
2022/12/29 09:00:03;;;;;;;4.18;1.73;;;25.10;62.60;;;;;;4050867;29;20123;-51
2022/12/29 09:02:26;;;;;;;5.25;1.90;;;25.10;62.60;;;;;;4050417;29;20417;-47
2022/12/29 09:04:48;;;;;;;4.80;2.25;;;25.10;62.60;;;;;;4054193;29;20043;-52
2022/12/29 09:07:10;;;;;;;5.57;2.65;;;25.00;62.60;;;;;;4053959;29;20040;-51
2022/12/29 09:09:33;;;;;;;5.15;1.95;;;25.00;62.60;;;;;;4053665;29;20047;-49
2022/12/29 09:11:56;;;;;;;6.80;2.58;;;25.00;62.70;;;;;;4039480;29;20661;-50
2022/12/29 09:14:19;;;;;;;4.93;1.90;;;25.00;62.70;;;;;;4051328;29;20532;-50
2022/12/29 09:19:22;;;;;;;5.07;2.03;;;25.00;62.70;;;;;;4053435;29;20131;-46
2022/12/29 09:21:44;;;;;;;6.38;1.92;;;25.00;62.70;;;;;;4040552;29;20568;-48
2022/12/29 09:24:06;;;;;;;6.07;2.00;;;25.00;62.60;;;;;;4054617;29;20044;-49
2022/12/29 09:26:29;;;;;;;5.43;1.92;;;24.90;62.80;;;;;;4054243;29;20036;-51
2022/12/29 09:28:51;;;;;;;5.22;1.83;;;24.90;62.70;;;;;;4051593;29;20036;-52
2022/12/29 09:31:14;;;;;;;6.50;1.80;;;24.90;63.00;;;;;;4052419;29;20148;-50
2022/12/29 09:33:36;;;;;;;6.22;1.83;;;24.90;62.80;;;;;;4049060;29;20032;-47
2022/12/29 09:35:59;;;;;;;7.70;2.35;;;24.90;63.10;;;;;;4051973;29;20048;-51
2022/12/29 09:38:23;;;;;;;6.25;1.77;;;24.90;63.00;;;;;;4055535;29;20052;-50
2022/12/29 09:40:46;;;;;;;;;;;24.90;63.00;;;;;;4041323;29;20087;-53
2022/12/29 09:43:24;;;;;;;5.07;1.90;;;24.90;63.00;;;;;;4039449;29;20410;-48
2022/12/29 09:46:14;;;;;;;5.35;2.08;;;24.90;63.60;;;;;;4050763;29;20567;-51
2022/12/29 09:48:44;;;;;;;5.95;2.35;;;24.90;63.00;;;;;;4054302;29;20539;-52
2022/12/29 09:51:13;;;;;;;4.60;1.83;;;24.90;63.10;;;;;;4050375;29;20785;-47
2022/12/29 09:53:45;;;;;;;4.55;2.15;;;24.90;63.00;;;;;;4052229;29;20456;-50
2022/12/29 09:56:18;;;;;;;4.97;1.83;;;24.90;63.10;;;;;;4052645;29;20390;-50
2022/12/29 09:59:04;;;;;;;4.43;1.90;;;24.80;63.10;;;;;;4055135;29;20111;-47
2022/12/29 10:01:43;;;;;;;7.07;2.22;;;24.80;63.20;;;;;;4049876;29;20037;-50
2022/12/29 10:04:07;;;;;;;5.50;2.10;;;24.80;63.10;;;;;;4053846;29;20076;-52
2022/12/29 10:06:30;;;;;;;4.93;1.88;;;24.80;63.00;;;;;;4052232;29;20156;-46
2022/12/29 10:09:08;;;;;;;6.03;2.08;;;24.80;63.10;;;;;;4052266;29;20059;-48
2022/12/29 10:11:58;;;;;;;5.45;2.00;;;24.80;63.00;;;;;;4051669;29;20040;-46
2022/12/29 10:15:01;;;;;;;4.90;1.92;;;24.80;63.10;;;;;;4048793;29;20044;-47
2022/12/29 10:17:27;;;;;;;7.07;2.25;;;24.80;63.20;;;;;;4027390;29;20444;-49
2022/12/29 10:20:16;;;;;;;6.70;2.35;;;24.80;63.00;;;;;;4057159;29;20476;-48
2022/12/29 10:23:19;;;;;;;4.47;1.65;;;24.80;63.20;;;;;;4056734;29;20495;-49
2022/12/29 10:25:43;;;;;;;4.72;1.90;;;24.80;63.00;;;;;;4003472;29;20045;-49
2022/12/29 10:28:26;;;;;;;4.45;2.17;;;24.80;63.10;;;;;;4056882;29;20563;-46
2022/12/29 10:30:50;;;;;;;7.22;2.25;;;24.80;63.20;;;;;;4046695;29;20056;-49
2022/12/29 10:33:20;;;;;;;5.72;2.10;;;24.80;63.20;;;;;;4051990;29;20039;-46
2022/12/29 10:35:43;;;;;;;4.35;2.30;;;24.70;63.20;;;;;;4058512;29;20047;-49
2022/12/29 10:38:11;;;;;;;6.63;1.80;;;24.70;63.10;;;;;;4055414;29;20044;-50
2022/12/29 10:40:49;;;;;;;3.83;1.90;;;24.70;63.80;;;;;;4053894;29;20043;-51
2022/12/29 10:43:26;;;;;;;3.83;1.77;;;24.70;63.30;;;;;;4057442;29;20585;-46
2022/12/29 10:45:49;;;;;;;6.35;2.03;;;24.70;63.20;;;;;;4044217;29;20131;-46
2022/12/29 10:48:20;;;;;;;5.20;1.90;;;24.70;63.30;;;;;;4054035;29;20056;-47
2022/12/29 10:50:43;;;;;;;6.82;2.40;;;24.70;63.40;;;;;;4054111;29;20040;-46
2022/12/29 10:53:06;;;;;;;5.43;2.40;;;24.70;63.50;;;;;;4056773;29;20205;-46
2022/12/29 10:55:36;;;;;;;6.28;2.28;;;24.70;63.50;;;;;;4050791;29;20087;-47
2022/12/29 10:58:04;;;;;;;5.53;2.10;;;24.60;63.50;;;;;;4040706;29;20061;-46
2022/12/29 11:00:27;;;;;;;5.95;1.85;;;24.70;63.50;;;;;;4041056;29;20539;-46
2022/12/29 11:03:14;;;;;;;5.88;1.80;;;24.70;63.50;;;;;;4048823;29;20055;-50
2022/12/29 11:05:49;;;;;;;6.20;2.00;;;24.60;63.50;;;;;;4057565;29;20047;-45
2022/12/29 11:08:22;;;;;;;6.25;2.17;;;24.60;63.40;;;;;;4038900;29;20041;-47
2022/12/29 11:10:46;;;;;;;5.38;1.85;;;24.60;63.40;;;;;;4056421;29;20067;-46
2022/12/29 11:13:12;;;;;;;;;;;24.60;63.70;;;;;;4058549;29;20107;-49
2022/12/29 11:15:43;;;;;;;5.75;1.92;;;24.60;63.70;;;;;;4057731;29;19919;-47
2022/12/29 11:18:17;;;;;;;4.60;2.40;;;24.60;63.60;;;;;;4057410;29;20518;-50
2022/12/29 11:20:42;;;;;;;6.38;1.80;;;24.60;63.60;;;;;;4057271;29;20405;-46
2022/12/29 11:23:21;;;;;;;7.30;2.17;;;24.60;63.80;;;;;;4056214;29;20086;-45
2022/12/29 11:25:43;;;;;;;4.75;2.05;;;24.60;63.80;;;;;;4052106;29;20099;-44
2022/12/29 11:28:29;;;;;;;6.90;2.00;;;24.60;63.60;;;;;;4057080;29;20043;-45
2022/12/29 11:31:01;;;;;;;4.50;1.90;;;24.60;63.80;;;;;;4064782;29;20107;-49
2022/12/29 11:33:23;;;;;;;3.70;1.60;;;24.60;63.90;;;;;;4050506;29;20052;-47
2022/12/29 11:35:46;;;;;;;3.67;1.45;;;24.60;64.00;;;;;;4054870;29;20036;-51
2022/12/29 11:38:21;;;;;;;4.20;1.65;;;24.60;63.90;;;;;;4057806;29;20300;-46
2022/12/29 11:40:43;;;;;;;5.25;1.60;;;24.50;63.90;;;;;;4057724;29;20119;-48
2022/12/29 11:43:06;;;;;;;4.75;2.08;;;24.50;64.00;;;;;;4054834;29;20481;-50
2022/12/29 11:45:35;;;;;;;3.88;1.60;;;24.50;63.90;;;;;;4056057;29;20111;-52
2022/12/29 11:47:59;;;;;;;4.50;1.63;;;24.50;63.80;;;;;;4053335;29;20044;-47
2022/12/29 11:50:29;;;;;;;5.00;1.88;;;24.50;64.00;;;;;;4052815;29;20048;-45
2022/12/29 11:53:00;;;;;;;4.25;1.73;;;24.50;64.10;;;;;;4056249;29;20036;-47
2022/12/29 11:55:25;;;;;;;3.15;1.83;;;24.50;64.00;;;;;;4043125;29;20056;-48
2022/12/29 11:57:49;;;;;;;2.92;1.55;;;24.50;64.10;;;;;;4056319;29;20557;-50
2022/12/29 12:00:21;;;;;;;6.68;1.65;;;24.40;64.00;;;;;;4042267;29;20113;-51
2022/12/29 12:03:01;;;;;;;5.82;1.88;;;24.40;64.30;;;;;;4056563;29;20412;-49
2022/12/29 12:05:53;;;;;;;6.82;1.83;;;24.40;64.20;;;;;;4054386;29;20476;-49
2022/12/29 12:08:31;;;;;;;4.93;1.58;;;24.40;64.40;;;;;;4056451;29;20042;-52
2022/12/29 12:11:04;;;;;;;5.07;1.48;;;24.40;64.40;;;;;;4056467;29;20048;-50
2022/12/29 12:13:33;;;;;;;4.10;1.65;;;24.40;64.50;;;;;;4055162;29;20032;-48
2022/12/29 12:16:01;;;;;;;4.10;1.50;;;24.40;65.10;;;;;;4056456;29;20484;-52
2022/12/29 12:18:42;;;;;;;9.15;2.00;;;24.40;64.60;;;;;;4053604;29;20047;-46
2022/12/29 12:21:10;;;;;;;8.52;1.83;;;24.40;64.70;;;;;;4055826;29;20071;-47
2022/12/29 12:23:44;;;;;;;3.72;1.65;;;24.40;64.70;;;;;;4056775;29;20048;-46
2022/12/29 12:26:24;;;;;;;5.28;2.08;;;24.40;64.70;;;;;;4051657;29;20096;-44
2022/12/29 12:29:10;;;;;;;4.93;1.45;;;24.40;64.80;;;;;;4054666;29;20599;-43
2022/12/29 12:31:45;;;;;;;3.15;1.23;;;24.40;64.50;;;;;;4044185;29;20041;-50
2022/12/29 12:34:24;;;;;;;3.00;1.13;;;24.40;64.70;;;;;;4055282;29;20070;-45
2022/12/29 12:37:11;;;;;;;4.25;1.95;;;24.40;64.70;;;;;;4055718;29;20237;-41
2022/12/29 12:39:59;;;;;;;3.83;1.40;;;24.40;64.70;;;;;;4059057;29;20057;-45
2022/12/29 12:42:25;;;;;;;8.25;2.08;;;24.40;65.30;;;;;;4055134;29;20509;-44
2022/12/29 12:45:25;;;;;;;8.57;1.83;;;24.40;65.10;;;;;;4057513;29;20131;-46
2022/12/29 12:48:15;;;;;;;5.57;1.52;;;24.40;65.10;;;;;;4057480;29;20055;-44
2022/12/29 12:51:00;;;;;;;4.47;1.48;;;24.40;65.40;;;;;;4054910;29;20752;-47
2022/12/29 12:53:41;;;;;;;9.32;1.77;;;24.40;65.30;;;;;;4055061;29;20403;-42
2022/12/29 12:56:12;;;;;;;5.35;2.13;;;24.40;65.40;;;;;;4056522;29;20318;-44
2022/12/29 12:58:49;;;;;;;3.55;1.40;;;24.40;65.20;;;;;;4042629;29;20076;-44
2022/12/29 13:01:36;;;;;;;5.05;1.38;;;24.40;65.10;;;;;;4051976;29;20032;-41
2022/12/29 13:04:25;;;;;;;6.13;1.20;;;24.40;65.00;;;;;;4054434;29;20107;-43
2022/12/29 13:06:58;;;;;;;3.22;1.05;;;24.40;65.20;;;;;;4056092;29;20499;-42
2022/12/29 13:09:40;;;;;;;3.55;0.98;;;24.40;65.10;;;;;;4056585;29;20412;-41
2022/12/29 13:12:12;;;;;;;4.60;1.00;;;24.40;65.30;;;;;;4053678;29;20048;-41
2022/12/29 13:15:09;;;;;;;4.32;1.27;;;24.50;65.20;;;;;;4055882;29;20040;-44
2022/12/29 13:17:50;;;;;;;2.53;1.10;;;24.50;65.10;;;;;;3991725;29;20064;-45
2022/12/29 13:20:36;;;;;;;4.32;1.40;;;24.50;65.10;;;;;;4056167;29;20036;-48
2022/12/29 13:23:23;;;;;;;14.35;1.65;;;24.50;65.10;;;;;;4056446;29;20127;-46